sensor_id;sensor_type;location;lat;lon;timestamp;P1;durP1;ratioP1;P2;durP2;ratioP2
26864;SDS011;40618;51.166;10.322;2023-11-19T00:01:09;1.00;;;0.88;;
26864;SDS011;40618;51.166;10.322;2023-11-19T00:03:35;1.48;;;1.00;;
26864;SDS011;40618;51.166;10.322;2023-11-19T00:06:01;1.00;;;0.90;;
26864;SDS011;40618;51.166;10.322;2023-11-19T00:08:26;0.90;;;0.85;;
26864;SDS011;40618;51.166;10.322;2023-11-19T00:10:52;1.00;;;0.93;;
26864;SDS011;40618;51.166;10.322;2023-11-19T00:13:18;1.52;;;0.88;;
26864;SDS011;40618;51.166;10.322;2023-11-19T00:15:43;1.10;;;0.68;;
26864;SDS011;40618;51.166;10.322;2023-11-19T00:18:10;0.80;;;0.70;;
26864;SDS011;40618;51.166;10.322;2023-11-19T00:20:36;0.90;;;0.70;;
26864;SDS011;40618;51.166;10.322;2023-11-19T00:23:01;1.70;;;0.90;;
26864;SDS011;40618;51.166;10.322;2023-11-19T00:25:27;0.90;;;0.85;;
26864;SDS011;40618;51.166;10.322;2023-11-19T00:27:53;0.82;;;0.70;;
26864;SDS011;40618;51.166;10.322;2023-11-19T00:30:19;0.75;;;0.60;;
26864;SDS011;40618;51.166;10.322;2023-11-19T00:32:44;0.70;;;0.70;;
26864;SDS011;40618;51.166;10.322;2023-11-19T00:35:10;0.63;;;0.60;;
26864;SDS011;40618;51.166;10.322;2023-11-19T00:37:38;0.70;;;0.68;;
26864;SDS011;40618;51.166;10.322;2023-11-19T00:40:05;1.08;;;0.57;;
26864;SDS011;40618;51.166;10.322;2023-11-19T00:42:31;0.50;;;0.50;;
26864;SDS011;40618;51.166;10.322;2023-11-19T00:44:57;0.80;;;0.60;;
26864;SDS011;40618;51.166;10.322;2023-11-19T00:47:23;0.52;;;0.50;;
26864;SDS011;40618;51.166;10.322;2023-11-19T00:49:49;1.10;;;0.65;;
26864;SDS011;40618;51.166;10.322;2023-11-19T00:52:15;0.98;;;0.70;;
26864;SDS011;40618;51.166;10.322;2023-11-19T00:54:42;0.73;;;0.60;;
26864;SDS011;40618;51.166;10.322;2023-11-19T00:57:08;0.98;;;0.60;;
26864;SDS011;40618;51.166;10.322;2023-11-19T00:59:33;2.40;;;0.65;;
26864;SDS011;40618;51.166;10.322;2023-11-19T01:01:59;0.52;;;0.52;;
26864;SDS011;40618;51.166;10.322;2023-11-19T01:04:29;2.28;;;0.63;;
26864;SDS011;40618;51.166;10.322;2023-11-19T01:07:02;0.60;;;0.60;;
26864;SDS011;40618;51.166;10.322;2023-11-19T01:09:29;1.15;;;0.60;;
26864;SDS011;40618;51.166;10.322;2023-11-19T01:11:57;0.60;;;0.60;;
26864;SDS011;40618;51.166;10.322;2023-11-19T01:14:25;1.10;;;0.60;;
26864;SDS011;40618;51.166;10.322;2023-11-19T01:16:51;0.68;;;0.50;;
26864;SDS011;40618;51.166;10.322;2023-11-19T01:19:18;0.40;;;0.40;;
26864;SDS011;40618;51.166;10.322;2023-11-19T01:21:44;0.60;;;0.60;;
26864;SDS011;40618;51.166;10.322;2023-11-19T01:24:10;1.92;;;0.75;;
26864;SDS011;40618;51.166;10.322;2023-11-19T01:26:38;0.45;;;0.45;;
26864;SDS011;40618;51.166;10.322;2023-11-19T01:29:03;1.58;;;0.70;;
26864;SDS011;40618;51.166;10.322;2023-11-19T01:31:29;0.47;;;0.47;;
26864;SDS011;40618;51.166;10.322;2023-11-19T01:33:58;1.08;;;0.47;;
26864;SDS011;40618;51.166;10.322;2023-11-19T01:36:24;0.70;;;0.30;;
26864;SDS011;40618;51.166;10.322;2023-11-19T01:38:50;1.20;;;0.47;;
26864;SDS011;40618;51.166;10.322;2023-11-19T01:41:15;0.50;;;0.47;;
26864;SDS011;40618;51.166;10.322;2023-11-19T01:43:41;1.10;;;0.70;;
26864;SDS011;40618;51.166;10.322;2023-11-19T01:46:06;0.40;;;0.40;;
26864;SDS011;40618;51.166;10.322;2023-11-19T01:48:34;0.40;;;0.32;;
26864;SDS011;40618;51.166;10.322;2023-11-19T01:51:05;0.47;;;0.47;;
26864;SDS011;40618;51.166;10.322;2023-11-19T01:53:34;0.63;;;0.50;;
26864;SDS011;40618;51.166;10.322;2023-11-19T01:56:03;0.40;;;0.40;;
26864;SDS011;40618;51.166;10.322;2023-11-19T01:58:34;0.60;;;0.60;;
26864;SDS011;40618;51.166;10.322;2023-11-19T02:01:01;0.68;;;0.30;;
26864;SDS011;40618;51.166;10.322;2023-11-19T02:03:29;0.57;;;0.57;;
26864;SDS011;40618;51.166;10.322;2023-11-19T02:05:57;0.50;;;0.50;;
26864;SDS011;40618;51.166;10.322;2023-11-19T02:08:27;0.43;;;0.40;;
26864;SDS011;40618;51.166;10.322;2023-11-19T02:10:54;0.45;;;0.30;;
26864;SDS011;40618;51.166;10.322;2023-11-19T02:13:23;0.60;;;0.60;;
26864;SDS011;40618;51.166;10.322;2023-11-19T02:15:50;1.02;;;0.50;;
26864;SDS011;40618;51.166;10.322;2023-11-19T02:20:47;0.40;;;0.40;;
26864;SDS011;40618;51.166;10.322;2023-11-19T02:23:16;0.60;;;0.50;;
26864;SDS011;40618;51.166;10.322;2023-11-19T02:25:42;0.65;;;0.52;;
26864;SDS011;40618;51.166;10.322;2023-11-19T02:28:15;0.63;;;0.45;;
26864;SDS011;40618;51.166;10.322;2023-11-19T02:30:41;0.50;;;0.50;;
26864;SDS011;40618;51.166;10.322;2023-11-19T02:33:07;0.80;;;0.60;;
26864;SDS011;40618;51.166;10.322;2023-11-19T02:35:33;0.50;;;0.50;;
26864;SDS011;40618;51.166;10.322;2023-11-19T02:37:59;0.50;;;0.50;;
26864;SDS011;40618;51.166;10.322;2023-11-19T02:40:31;0.93;;;0.40;;
26864;SDS011;40618;51.166;10.322;2023-11-19T02:42:57;0.75;;;0.75;;
26864;SDS011;40618;51.166;10.322;2023-11-19T02:45:23;0.77;;;0.50;;
26864;SDS011;40618;51.166;10.322;2023-11-19T02:47:53;0.50;;;0.50;;
26864;SDS011;40618;51.166;10.322;2023-11-19T02:50:20;0.85;;;0.70;;
26864;SDS011;40618;51.166;10.322;2023-11-19T02:52:53;1.48;;;0.70;;
26864;SDS011;40618;51.166;10.322;2023-11-19T02:55:24;0.50;;;0.50;;
26864;SDS011;40618;51.166;10.322;2023-11-19T02:57:50;0.60;;;0.60;;
26864;SDS011;40618;51.166;10.322;2023-11-19T03:00:18;0.50;;;0.50;;
26864;SDS011;40618;51.166;10.322;2023-11-19T03:02:50;0.52;;;0.52;;
26864;SDS011;40618;51.166;10.322;2023-11-19T03:05:39;0.32;;;0.32;;
26864;SDS011;40618;51.166;10.322;2023-11-19T03:08:05;0.40;;;0.40;;
26864;SDS011;40618;51.166;10.322;2023-11-19T03:10:32;0.32;;;0.32;;
26864;SDS011;40618;51.166;10.322;2023-11-19T03:12:59;0.30;;;0.30;;
26864;SDS011;40618;51.166;10.322;2023-11-19T03:15:27;0.25;;;0.25;;
26864;SDS011;40618;51.166;10.322;2023-11-19T03:17:52;0.32;;;0.30;;
26864;SDS011;40618;51.166;10.322;2023-11-19T03:20:19;0.40;;;0.30;;
26864;SDS011;40618;51.166;10.322;2023-11-19T03:22:45;0.20;;;0.20;;
26864;SDS011;40618;51.166;10.322;2023-11-19T03:25:11;0.45;;;0.40;;
26864;SDS011;40618;51.166;10.322;2023-11-19T03:27:38;0.40;;;0.40;;
26864;SDS011;40618;51.166;10.322;2023-11-19T03:30:07;0.22;;;0.22;;
26864;SDS011;40618;51.166;10.322;2023-11-19T03:32:37;0.40;;;0.40;;
26864;SDS011;40618;51.166;10.322;2023-11-19T03:35:04;0.20;;;0.20;;
26864;SDS011;40618;51.166;10.322;2023-11-19T03:37:32;0.10;;;0.10;;
26864;SDS011;40618;51.166;10.322;2023-11-19T03:39:58;0.20;;;0.20;;
26864;SDS011;40618;51.166;10.322;2023-11-19T03:42:28;0.20;;;0.20;;
26864;SDS011;40618;51.166;10.322;2023-11-19T03:44:56;1.00;;;0.30;;
26864;SDS011;40618;51.166;10.322;2023-11-19T03:47:22;0.40;;;0.40;;
26864;SDS011;40618;51.166;10.322;2023-11-19T03:49:48;0.30;;;0.30;;
26864;SDS011;40618;51.166;10.322;2023-11-19T03:52:15;0.22;;;0.22;;
26864;SDS011;40618;51.166;10.322;2023-11-19T03:54:41;3.60;;;0.35;;
26864;SDS011;40618;51.166;10.322;2023-11-19T03:57:07;0.30;;;0.30;;
26864;SDS011;40618;51.166;10.322;2023-11-19T03:59:35;0.32;;;0.32;;
26864;SDS011;40618;51.166;10.322;2023-11-19T04:02:01;0.50;;;0.30;;
26864;SDS011;40618;51.166;10.322;2023-11-19T04:04:27;0.68;;;0.60;;
26864;SDS011;40618;51.166;10.322;2023-11-19T04:06:54;0.38;;;0.28;;
26864;SDS011;40618;51.166;10.322;2023-11-19T04:09:21;0.20;;;0.20;;
26864;SDS011;40618;51.166;10.322;2023-11-19T04:11:47;0.20;;;0.20;;
26864;SDS011;40618;51.166;10.322;2023-11-19T04:14:13;2.35;;;0.50;;
26864;SDS011;40618;51.166;10.322;2023-11-19T04:16:39;0.20;;;0.20;;
26864;SDS011;40618;51.166;10.322;2023-11-19T04:19:05;0.13;;;0.13;;
26864;SDS011;40618;51.166;10.322;2023-11-19T04:21:31;1.25;;;0.28;;
26864;SDS011;40618;51.166;10.322;2023-11-19T04:23:58;0.55;;;0.20;;
26864;SDS011;40618;51.166;10.322;2023-11-19T04:26:24;0.20;;;0.20;;
26864;SDS011;40618;51.166;10.322;2023-11-19T04:28:49;0.35;;;0.20;;
26864;SDS011;40618;51.166;10.322;2023-11-19T04:31:15;0.20;;;0.20;;
26864;SDS011;40618;51.166;10.322;2023-11-19T04:33:41;0.30;;;0.30;;
26864;SDS011;40618;51.166;10.322;2023-11-19T04:36:08;0.13;;;0.10;;
26864;SDS011;40618;51.166;10.322;2023-11-19T04:38:35;0.35;;;0.25;;
26864;SDS011;40618;51.166;10.322;2023-11-19T04:41:00;0.30;;;0.30;;
26864;SDS011;40618;51.166;10.322;2023-11-19T04:43:26;0.60;;;0.40;;
26864;SDS011;40618;51.166;10.322;2023-11-19T04:45:52;0.47;;;0.47;;
26864;SDS011;40618;51.166;10.322;2023-11-19T04:48:17;0.52;;;0.52;;
26864;SDS011;40618;51.166;10.322;2023-11-19T04:50:43;0.65;;;0.52;;
26864;SDS011;40618;51.166;10.322;2023-11-19T04:53:09;0.28;;;0.28;;
26864;SDS011;40618;51.166;10.322;2023-11-19T04:55:35;0.45;;;0.43;;
26864;SDS011;40618;51.166;10.322;2023-11-19T04:58:00;0.93;;;0.50;;
26864;SDS011;40618;51.166;10.322;2023-11-19T05:00:26;0.47;;;0.43;;
26864;SDS011;40618;51.166;10.322;2023-11-19T05:02:51;0.50;;;0.50;;
26864;SDS011;40618;51.166;10.322;2023-11-19T05:05:17;0.50;;;0.50;;
26864;SDS011;40618;51.166;10.322;2023-11-19T05:07:43;0.55;;;0.55;;
26864;SDS011;40618;51.166;10.322;2023-11-19T05:10:09;0.93;;;0.65;;
26864;SDS011;40618;51.166;10.322;2023-11-19T05:12:35;0.47;;;0.47;;
26864;SDS011;40618;51.166;10.322;2023-11-19T05:15:00;1.63;;;0.63;;
26864;SDS011;40618;51.166;10.322;2023-11-19T05:17:26;1.27;;;0.70;;
26864;SDS011;40618;51.166;10.322;2023-11-19T05:19:51;1.00;;;0.90;;
26864;SDS011;40618;51.166;10.322;2023-11-19T05:22:17;0.75;;;0.73;;
26864;SDS011;40618;51.166;10.322;2023-11-19T05:24:43;0.90;;;0.80;;
26864;SDS011;40618;51.166;10.322;2023-11-19T05:27:09;0.68;;;0.68;;
26864;SDS011;40618;51.166;10.322;2023-11-19T05:29:36;0.70;;;0.70;;
26864;SDS011;40618;51.166;10.322;2023-11-19T05:32:04;0.90;;;0.80;;
26864;SDS011;40618;51.166;10.322;2023-11-19T05:34:30;1.27;;;0.80;;
26864;SDS011;40618;51.166;10.322;2023-11-19T05:36:56;0.73;;;0.73;;
26864;SDS011;40618;51.166;10.322;2023-11-19T05:39:22;0.98;;;0.93;;
26864;SDS011;40618;51.166;10.322;2023-11-19T05:41:49;0.70;;;0.70;;
26864;SDS011;40618;51.166;10.322;2023-11-19T05:44:14;1.77;;;0.80;;
26864;SDS011;40618;51.166;10.322;2023-11-19T05:46:40;0.70;;;0.70;;
26864;SDS011;40618;51.166;10.322;2023-11-19T05:49:08;0.70;;;0.70;;
26864;SDS011;40618;51.166;10.322;2023-11-19T05:51:37;0.63;;;0.63;;
26864;SDS011;40618;51.166;10.322;2023-11-19T05:54:04;0.70;;;0.70;;
26864;SDS011;40618;51.166;10.322;2023-11-19T05:56:34;0.80;;;0.73;;
26864;SDS011;40618;51.166;10.322;2023-11-19T05:59:00;1.33;;;0.90;;
26864;SDS011;40618;51.166;10.322;2023-11-19T06:01:28;0.70;;;0.70;;
26864;SDS011;40618;51.166;10.322;2023-11-19T06:03:54;1.67;;;1.00;;
26864;SDS011;40618;51.166;10.322;2023-11-19T06:06:20;0.90;;;0.90;;
26864;SDS011;40618;51.166;10.322;2023-11-19T06:08:46;1.48;;;0.90;;
26864;SDS011;40618;51.166;10.322;2023-11-19T06:11:12;1.35;;;0.70;;
26864;SDS011;40618;51.166;10.322;2023-11-19T06:13:43;0.88;;;0.80;;
26864;SDS011;40618;51.166;10.322;2023-11-19T06:16:09;1.15;;;0.70;;
26864;SDS011;40618;51.166;10.322;2023-11-19T06:18:35;1.67;;;0.90;;
26864;SDS011;40618;51.166;10.322;2023-11-19T06:21:01;0.70;;;0.70;;
26864;SDS011;40618;51.166;10.322;2023-11-19T06:23:27;1.88;;;1.10;;
26864;SDS011;40618;51.166;10.322;2023-11-19T06:25:53;1.20;;;0.70;;
26864;SDS011;40618;51.166;10.322;2023-11-19T06:28:18;1.65;;;0.85;;
26864;SDS011;40618;51.166;10.322;2023-11-19T06:30:44;2.00;;;0.90;;
26864;SDS011;40618;51.166;10.322;2023-11-19T06:33:13;3.30;;;1.10;;
26864;SDS011;40618;51.166;10.322;2023-11-19T06:35:39;1.02;;;0.70;;
26864;SDS011;40618;51.166;10.322;2023-11-19T06:38:05;1.40;;;1.08;;
26864;SDS011;40618;51.166;10.322;2023-11-19T06:40:31;2.22;;;0.90;;
26864;SDS011;40618;51.166;10.322;2023-11-19T06:42:58;1.83;;;0.93;;
26864;SDS011;40618;51.166;10.322;2023-11-19T06:45:24;2.83;;;1.10;;
26864;SDS011;40618;51.166;10.322;2023-11-19T06:47:50;2.47;;;1.50;;
26864;SDS011;40618;51.166;10.322;2023-11-19T06:50:16;4.25;;;1.65;;
26864;SDS011;40618;51.166;10.322;2023-11-19T06:52:41;2.22;;;1.30;;
26864;SDS011;40618;51.166;10.322;2023-11-19T06:55:07;1.63;;;1.00;;
26864;SDS011;40618;51.166;10.322;2023-11-19T06:57:33;0.85;;;0.60;;
26864;SDS011;40618;51.166;10.322;2023-11-19T06:59:59;1.33;;;0.77;;
26864;SDS011;40618;51.166;10.322;2023-11-19T07:02:25;2.17;;;0.73;;
26864;SDS011;40618;51.166;10.322;2023-11-19T07:04:50;1.10;;;0.68;;
26864;SDS011;40618;51.166;10.322;2023-11-19T07:07:16;2.50;;;0.75;;
26864;SDS011;40618;51.166;10.322;2023-11-19T07:09:42;3.53;;;1.27;;
26864;SDS011;40618;51.166;10.322;2023-11-19T07:12:08;1.75;;;0.90;;
26864;SDS011;40618;51.166;10.322;2023-11-19T07:14:34;1.02;;;0.80;;
26864;SDS011;40618;51.166;10.322;2023-11-19T07:17:00;2.15;;;0.90;;
26864;SDS011;40618;51.166;10.322;2023-11-19T07:19:25;3.75;;;1.25;;
26864;SDS011;40618;51.166;10.322;2023-11-19T07:21:51;1.52;;;0.70;;
26864;SDS011;40618;51.166;10.322;2023-11-19T07:24:19;3.03;;;0.70;;
26864;SDS011;40618;51.166;10.322;2023-11-19T07:26:46;1.50;;;0.95;;
26864;SDS011;40618;51.166;10.322;2023-11-19T07:29:13;1.88;;;0.80;;
26864;SDS011;40618;51.166;10.322;2023-11-19T07:31:41;1.13;;;0.73;;
26864;SDS011;40618;51.166;10.322;2023-11-19T07:34:09;2.75;;;1.05;;
26864;SDS011;40618;51.166;10.322;2023-11-19T07:36:36;1.73;;;0.77;;
26864;SDS011;40618;51.166;10.322;2023-11-19T07:39:03;1.55;;;1.10;;
26864;SDS011;40618;51.166;10.322;2023-11-19T07:41:30;1.85;;;1.15;;
26864;SDS011;40618;51.166;10.322;2023-11-19T07:43:56;1.83;;;0.80;;
26864;SDS011;40618;51.166;10.322;2023-11-19T07:46:22;3.03;;;1.00;;
26864;SDS011;40618;51.166;10.322;2023-11-19T07:48:47;0.90;;;0.65;;
26864;SDS011;40618;51.166;10.322;2023-11-19T07:51:13;3.80;;;0.98;;
26864;SDS011;40618;51.166;10.322;2023-11-19T07:53:40;2.50;;;1.17;;
26864;SDS011;40618;51.166;10.322;2023-11-19T07:56:06;3.13;;;0.88;;
26864;SDS011;40618;51.166;10.322;2023-11-19T07:58:33;2.35;;;1.05;;
26864;SDS011;40618;51.166;10.322;2023-11-19T08:00:58;2.42;;;1.10;;
26864;SDS011;40618;51.166;10.322;2023-11-19T08:03:24;4.25;;;0.88;;
26864;SDS011;40618;51.166;10.322;2023-11-19T08:05:50;2.78;;;1.33;;
26864;SDS011;40618;51.166;10.322;2023-11-19T08:08:16;4.40;;;1.30;;
26864;SDS011;40618;51.166;10.322;2023-11-19T08:10:42;2.55;;;1.00;;
26864;SDS011;40618;51.166;10.322;2023-11-19T08:13:09;5.30;;;1.00;;
26864;SDS011;40618;51.166;10.322;2023-11-19T08:15:36;2.42;;;1.13;;
26864;SDS011;40618;51.166;10.322;2023-11-19T08:18:02;2.10;;;1.00;;
26864;SDS011;40618;51.166;10.322;2023-11-19T08:20:27;2.75;;;0.95;;
26864;SDS011;40618;51.166;10.322;2023-11-19T08:22:53;1.23;;;0.75;;
26864;SDS011;40618;51.166;10.322;2023-11-19T08:25:18;4.45;;;1.25;;
26864;SDS011;40618;51.166;10.322;2023-11-19T08:27:44;2.33;;;0.60;;
26864;SDS011;40618;51.166;10.322;2023-11-19T08:30:10;2.15;;;0.70;;
26864;SDS011;40618;51.166;10.322;2023-11-19T08:32:37;7.82;;;0.93;;
26864;SDS011;40618;51.166;10.322;2023-11-19T08:35:02;1.83;;;0.70;;
26864;SDS011;40618;51.166;10.322;2023-11-19T08:37:28;6.15;;;1.30;;
26864;SDS011;40618;51.166;10.322;2023-11-19T08:39:54;4.82;;;1.05;;
26864;SDS011;40618;51.166;10.322;2023-11-19T08:42:20;4.18;;;1.65;;
26864;SDS011;40618;51.166;10.322;2023-11-19T08:44:50;17.52;;;8.27;;
26864;SDS011;40618;51.166;10.322;2023-11-19T08:47:19;9.43;;;3.67;;
26864;SDS011;40618;51.166;10.322;2023-11-19T08:49:45;17.83;;;7.95;;
26864;SDS011;40618;51.166;10.322;2023-11-19T08:52:11;27.65;;;14.05;;
26864;SDS011;40618;51.166;10.322;2023-11-19T08:54:37;57.78;;;29.75;;
26864;SDS011;40618;51.166;10.322;2023-11-19T08:57:02;29.58;;;12.60;;
26864;SDS011;40618;51.166;10.322;2023-11-19T08:59:29;29.17;;;15.05;;
26864;SDS011;40618;51.166;10.322;2023-11-19T09:01:55;28.65;;;13.48;;
26864;SDS011;40618;51.166;10.322;2023-11-19T09:04:21;24.38;;;9.63;;
26864;SDS011;40618;51.166;10.322;2023-11-19T09:06:49;19.75;;;8.38;;
26864;SDS011;40618;51.166;10.322;2023-11-19T09:09:16;23.85;;;11.90;;
26864;SDS011;40618;51.166;10.322;2023-11-19T09:11:41;11.77;;;5.30;;
26864;SDS011;40618;51.166;10.322;2023-11-19T09:14:07;13.07;;;3.60;;
26864;SDS011;40618;51.166;10.322;2023-11-19T09:16:33;18.48;;;7.30;;
26864;SDS011;40618;51.166;10.322;2023-11-19T09:18:59;31.58;;;14.65;;
26864;SDS011;40618;51.166;10.322;2023-11-19T09:21:26;15.77;;;5.93;;
26864;SDS011;40618;51.166;10.322;2023-11-19T09:23:51;12.27;;;3.83;;
26864;SDS011;40618;51.166;10.322;2023-11-19T09:26:19;9.85;;;2.42;;
26864;SDS011;40618;51.166;10.322;2023-11-19T09:28:44;11.00;;;2.80;;
26864;SDS011;40618;51.166;10.322;2023-11-19T09:31:13;12.23;;;2.45;;
26864;SDS011;40618;51.166;10.322;2023-11-19T09:33:40;11.43;;;2.70;;
26864;SDS011;40618;51.166;10.322;2023-11-19T09:36:06;13.93;;;2.03;;
26864;SDS011;40618;51.166;10.322;2023-11-19T09:38:32;11.80;;;2.90;;
26864;SDS011;40618;51.166;10.322;2023-11-19T09:41:00;15.55;;;3.30;;
26864;SDS011;40618;51.166;10.322;2023-11-19T09:43:27;13.85;;;3.45;;
26864;SDS011;40618;51.166;10.322;2023-11-19T09:45:55;12.43;;;2.95;;
26864;SDS011;40618;51.166;10.322;2023-11-19T09:48:23;25.20;;;3.22;;
26864;SDS011;40618;51.166;10.322;2023-11-19T09:50:51;24.95;;;12.07;;
26864;SDS011;40618;51.166;10.322;2023-11-19T09:53:17;14.98;;;5.22;;
26864;SDS011;40618;51.166;10.322;2023-11-19T09:55:45;8.77;;;2.67;;
26864;SDS011;40618;51.166;10.322;2023-11-19T09:58:11;15.77;;;3.28;;
26864;SDS011;40618;51.166;10.322;2023-11-19T10:00:40;8.52;;;1.85;;
26864;SDS011;40618;51.166;10.322;2023-11-19T10:03:06;8.68;;;2.35;;
26864;SDS011;40618;51.166;10.322;2023-11-19T10:05:36;14.98;;;7.43;;
26864;SDS011;40618;51.166;10.322;2023-11-19T10:08:03;11.70;;;3.88;;
26864;SDS011;40618;51.166;10.322;2023-11-19T10:10:29;7.30;;;1.95;;
26864;SDS011;40618;51.166;10.322;2023-11-19T10:12:55;8.80;;;2.60;;
26864;SDS011;40618;51.166;10.322;2023-11-19T10:15:21;15.60;;;3.28;;
26864;SDS011;40618;51.166;10.322;2023-11-19T10:20:20;11.98;;;2.60;;
26864;SDS011;40618;51.166;10.322;2023-11-19T10:22:45;10.82;;;2.90;;
26864;SDS011;40618;51.166;10.322;2023-11-19T10:25:27;9.75;;;2.30;;
26864;SDS011;40618;51.166;10.322;2023-11-19T10:27:55;8.77;;;2.38;;
26864;SDS011;40618;51.166;10.322;2023-11-19T10:30:26;31.40;;;15.32;;
26864;SDS011;40618;51.166;10.322;2023-11-19T10:33:07;21.35;;;4.93;;
26864;SDS011;40618;51.166;10.322;2023-11-19T10:35:35;10.77;;;2.67;;
26864;SDS011;40618;51.166;10.322;2023-11-19T10:38:15;16.85;;;3.33;;
26864;SDS011;40618;51.166;10.322;2023-11-19T10:40:41;8.70;;;2.80;;
26864;SDS011;40618;51.166;10.322;2023-11-19T10:43:08;15.90;;;5.05;;
26864;SDS011;40618;51.166;10.322;2023-11-19T10:45:34;9.70;;;3.50;;
26864;SDS011;40618;51.166;10.322;2023-11-19T10:48:02;10.13;;;2.90;;
26864;SDS011;40618;51.166;10.322;2023-11-19T10:50:38;10.48;;;2.55;;
26864;SDS011;40618;51.166;10.322;2023-11-19T10:53:07;8.38;;;2.35;;
26864;SDS011;40618;51.166;10.322;2023-11-19T10:55:38;10.65;;;2.65;;
26864;SDS011;40618;51.166;10.322;2023-11-19T10:58:08;9.00;;;2.28;;
26864;SDS011;40618;51.166;10.322;2023-11-19T11:03:29;8.57;;;2.70;;
26864;SDS011;40618;51.166;10.322;2023-11-19T11:06:05;13.60;;;3.25;;
26864;SDS011;40618;51.166;10.322;2023-11-19T11:08:31;14.10;;;3.42;;
26864;SDS011;40618;51.166;10.322;2023-11-19T11:11:02;12.02;;;2.53;;
26864;SDS011;40618;51.166;10.322;2023-11-19T11:13:29;8.75;;;2.10;;
26864;SDS011;40618;51.166;10.322;2023-11-19T11:15:57;11.40;;;2.80;;
26864;SDS011;40618;51.166;10.322;2023-11-19T11:18:24;9.52;;;2.10;;
26864;SDS011;40618;51.166;10.322;2023-11-19T11:20:51;8.68;;;2.33;;
26864;SDS011;40618;51.166;10.322;2023-11-19T11:23:35;14.25;;;2.78;;
26864;SDS011;40618;51.166;10.322;2023-11-19T11:35:06;14.60;;;2.13;;
26864;SDS011;40618;51.166;10.322;2023-11-19T11:38:03;8.07;;;2.47;;
26864;SDS011;40618;51.166;10.322;2023-11-19T11:42:59;7.30;;;1.95;;
26864;SDS011;40618;51.166;10.322;2023-11-19T11:45:40;9.93;;;2.42;;
26864;SDS011;40618;51.166;10.322;2023-11-19T11:48:11;11.02;;;2.30;;
26864;SDS011;40618;51.166;10.322;2023-11-19T11:50:51;12.45;;;2.75;;
26864;SDS011;40618;51.166;10.322;2023-11-19T11:53:20;9.93;;;2.45;;
26864;SDS011;40618;51.166;10.322;2023-11-19T11:58:21;14.30;;;2.45;;
26864;SDS011;40618;51.166;10.322;2023-11-19T12:00:57;7.15;;;2.00;;
26864;SDS011;40618;51.166;10.322;2023-11-19T12:03:26;8.00;;;2.65;;
26864;SDS011;40618;51.166;10.322;2023-11-19T12:05:55;10.65;;;2.53;;
26864;SDS011;40618;51.166;10.322;2023-11-19T12:08:27;13.77;;;2.38;;
26864;SDS011;40618;51.166;10.322;2023-11-19T12:10:55;9.02;;;2.13;;
26864;SDS011;40618;51.166;10.322;2023-11-19T12:13:23;9.50;;;2.67;;
26864;SDS011;40618;51.166;10.322;2023-11-19T12:18:22;10.13;;;2.67;;
26864;SDS011;40618;51.166;10.322;2023-11-19T12:20:51;15.50;;;2.47;;
26864;SDS011;40618;51.166;10.322;2023-11-19T12:23:17;7.53;;;2.05;;
26864;SDS011;40618;51.166;10.322;2023-11-19T12:25:42;7.95;;;2.65;;
26864;SDS011;40618;51.166;10.322;2023-11-19T12:28:13;11.27;;;2.72;;
26864;SDS011;40618;51.166;10.322;2023-11-19T12:30:42;12.00;;;3.75;;
26864;SDS011;40618;51.166;10.322;2023-11-19T12:33:09;6.90;;;2.50;;
26864;SDS011;40618;51.166;10.322;2023-11-19T12:35:39;7.85;;;1.85;;
26864;SDS011;40618;51.166;10.322;2023-11-19T12:38:44;12.23;;;2.78;;
26864;SDS011;40618;51.166;10.322;2023-11-19T12:41:03;9.63;;;2.45;;
26864;SDS011;40618;51.166;10.322;2023-11-19T12:43:29;12.55;;;2.83;;
26864;SDS011;40618;51.166;10.322;2023-11-19T12:45:55;14.93;;;2.30;;
26864;SDS011;40618;51.166;10.322;2023-11-19T12:48:21;12.00;;;3.03;;
26864;SDS011;40618;51.166;10.322;2023-11-19T12:50:57;8.30;;;2.72;;
26864;SDS011;40618;51.166;10.322;2023-11-19T12:53:25;11.07;;;2.70;;
26864;SDS011;40618;51.166;10.322;2023-11-19T12:55:52;15.82;;;2.72;;
26864;SDS011;40618;51.166;10.322;2023-11-19T12:58:30;14.85;;;3.38;;
26864;SDS011;40618;51.166;10.322;2023-11-19T13:01:00;13.50;;;2.75;;
26864;SDS011;40618;51.166;10.322;2023-11-19T13:03:31;11.02;;;2.58;;
26864;SDS011;40618;51.166;10.322;2023-11-19T13:06:07;14.45;;;3.03;;
26864;SDS011;40618;51.166;10.322;2023-11-19T13:08:43;12.38;;;2.83;;
26864;SDS011;40618;51.166;10.322;2023-11-19T13:11:12;13.60;;;2.75;;
26864;SDS011;40618;51.166;10.322;2023-11-19T13:13:54;15.23;;;2.80;;
26864;SDS011;40618;51.166;10.322;2023-11-19T13:16:24;12.93;;;2.17;;
26864;SDS011;40618;51.166;10.322;2023-11-19T13:18:51;11.00;;;2.83;;
26864;SDS011;40618;51.166;10.322;2023-11-19T13:21:17;8.95;;;2.35;;
26864;SDS011;40618;51.166;10.322;2023-11-19T13:23:43;9.43;;;2.35;;
26864;SDS011;40618;51.166;10.322;2023-11-19T13:26:09;7.95;;;2.47;;
26864;SDS011;40618;51.166;10.322;2023-11-19T13:28:36;8.48;;;2.13;;
26864;SDS011;40618;51.166;10.322;2023-11-19T13:31:03;10.93;;;2.78;;
26864;SDS011;40618;51.166;10.322;2023-11-19T13:33:29;11.55;;;3.05;;
26864;SDS011;40618;51.166;10.322;2023-11-19T13:35:55;16.48;;;3.00;;
26864;SDS011;40618;51.166;10.322;2023-11-19T13:38:22;9.80;;;2.38;;
26864;SDS011;40618;51.166;10.322;2023-11-19T13:40:51;16.15;;;2.25;;
26864;SDS011;40618;51.166;10.322;2023-11-19T13:43:16;13.05;;;2.63;;
26864;SDS011;40618;51.166;10.322;2023-11-19T13:45:42;13.93;;;2.63;;
26864;SDS011;40618;51.166;10.322;2023-11-19T13:48:07;14.27;;;3.10;;
26864;SDS011;40618;51.166;10.322;2023-11-19T13:50:34;11.90;;;2.75;;
26864;SDS011;40618;51.166;10.322;2023-11-19T13:53:00;15.10;;;2.83;;
26864;SDS011;40618;51.166;10.322;2023-11-19T13:55:26;10.52;;;2.83;;
26864;SDS011;40618;51.166;10.322;2023-11-19T13:57:52;12.63;;;2.65;;
26864;SDS011;40618;51.166;10.322;2023-11-19T14:00:17;12.73;;;3.78;;
26864;SDS011;40618;51.166;10.322;2023-11-19T14:02:44;12.10;;;2.85;;
26864;SDS011;40618;51.166;10.322;2023-11-19T14:05:12;10.20;;;2.40;;
26864;SDS011;40618;51.166;10.322;2023-11-19T14:07:41;10.68;;;2.67;;
26864;SDS011;40618;51.166;10.322;2023-11-19T14:10:07;10.38;;;2.28;;
26864;SDS011;40618;51.166;10.322;2023-11-19T14:12:34;10.93;;;2.65;;
26864;SDS011;40618;51.166;10.322;2023-11-19T14:15:01;10.65;;;2.47;;
26864;SDS011;40618;51.166;10.322;2023-11-19T14:17:27;13.05;;;2.97;;
26864;SDS011;40618;51.166;10.322;2023-11-19T14:19:53;12.10;;;2.70;;
26864;SDS011;40618;51.166;10.322;2023-11-19T14:22:18;11.80;;;3.47;;
26864;SDS011;40618;51.166;10.322;2023-11-19T14:24:44;13.80;;;3.80;;
26864;SDS011;40618;51.166;10.322;2023-11-19T14:27:10;11.55;;;2.88;;
26864;SDS011;40618;51.166;10.322;2023-11-19T14:29:36;9.68;;;3.13;;
26864;SDS011;40618;51.166;10.322;2023-11-19T14:32:02;7.57;;;1.95;;
26864;SDS011;40618;51.166;10.322;2023-11-19T14:34:32;6.70;;;2.45;;
26864;SDS011;40618;51.166;10.322;2023-11-19T14:36:58;6.57;;;2.08;;
26864;SDS011;40618;51.166;10.322;2023-11-19T14:39:25;6.95;;;1.80;;
26864;SDS011;40618;51.166;10.322;2023-11-19T14:41:51;5.88;;;1.40;;
26864;SDS011;40618;51.166;10.322;2023-11-19T14:44:17;6.25;;;1.85;;
26864;SDS011;40618;51.166;10.322;2023-11-19T14:46:44;9.30;;;2.53;;
26864;SDS011;40618;51.166;10.322;2023-11-19T14:49:10;7.88;;;1.95;;
26864;SDS011;40618;51.166;10.322;2023-11-19T14:51:39;7.65;;;1.73;;
26864;SDS011;40618;51.166;10.322;2023-11-19T14:54:05;8.15;;;1.73;;
26864;SDS011;40618;51.166;10.322;2023-11-19T14:56:31;9.60;;;2.30;;